Time;durP1;ratioP1;P1;durP2;ratioP2;P2;SDS_P1;SDS_P2;PMS_P1;PMS_P2;Temp;Humidity;BMP_temperature;BMP_pressure;BME280_temperature;BME280_humidity;BME280_pressure;Samples;Min_cycle;Max_cycle;Signal;HPM_P1;HPM_P2
2022/02/12 00:00:58;;;;;;;;;;;;;;;3.53;100.00;100766.66;5019252;28;20655;-83
2022/02/12 00:03:24;;;;;;;;;;;;;;;3.65;100.00;100766.09;5018375;28;19921;-83
2022/02/12 00:05:49;;;;;;;;;;;;;;;3.94;100.00;100769.34;5051293;28;20414;-85
2022/02/12 00:08:14;;;;;;;;;;;;;;;3.68;100.00;100761.97;5066126;23;19929;-83
2022/02/12 00:10:40;;;;;;;;;;;;;;;3.87;100.00;100764.94;5027658;28;20391;-82
2022/02/12 00:13:11;;;;;;;;;;;;;;;3.93;100.00;100757.44;5049249;28;20040;-84
2022/02/12 00:15:37;;;;;;;;;;;;;;;4.01;100.00;100761.00;5035407;28;19944;-82
2022/02/12 00:18:04;;;;;;;;;;;;;;;4.08;100.00;100757.81;5052884;28;19917;-82
2022/02/12 00:20:29;;;;;;;;;;;;;;;3.87;100.00;100752.19;5051244;28;19920;-82
2022/02/12 00:22:54;;;;;;;;;;;;;;;3.74;100.00;100751.91;5051730;28;20367;-85
2022/02/12 00:25:19;;;;;;;;;;;;;;;3.69;100.00;100747.53;5052029;28;19921;-83
2022/02/12 00:27:45;;;;;;;;;;;;;;;3.71;100.00;100751.81;5050918;28;19981;-83
2022/02/12 00:30:10;;;;;;;;;;;;;;;3.64;100.00;100751.66;5050176;28;19974;-83
2022/02/12 00:32:35;;;;;;;;;;;;;;;3.65;100.00;100749.16;5068995;28;20346;-82
2022/02/12 00:35:01;;;;;;;;;;;;;;;3.81;100.00;100749.50;5068826;28;20499;-83
2022/02/12 00:37:28;;;;;;;;;;;;;;;3.73;100.00;100740.00;5050660;28;20525;-82
2022/02/12 00:39:53;;;;;;;;;;;;;;;3.05;100.00;100736.59;5034045;28;19924;-82
2022/02/12 00:42:19;;;;;;;;;;;;;;;3.58;100.00;100733.66;5050737;28;19927;-83
2022/02/12 00:44:44;;;;;;;;;;;;;;;3.61;100.00;100726.97;5034134;28;20005;-83
2022/02/12 00:47:09;;;;;;;;;;;;;;;3.83;100.00;100724.91;5035024;28;19951;-82
2022/02/12 00:49:35;;;;;;;;;;;;;;;3.75;100.00;100733.25;5050326;28;20318;-83
2022/02/12 00:52:00;;;;;;;;;;;;;;;3.64;100.00;100719.38;5051096;28;20383;-83
2022/02/12 00:54:26;;;;;;;;;;;;;;;3.63;100.00;100722.78;5050863;28;19923;-85
2022/02/12 00:56:51;;;;;;;;;;;;;;;3.50;100.00;100726.69;5071923;28;20330;-85
2022/02/12 00:59:16;;;;;;;;;;;;;;;4.04;100.00;100724.53;5050799;28;19966;-83
2022/02/12 01:01:42;;;;;;;;;;;;;;;4.08;100.00;100719.56;5067993;28;19920;-83
2022/02/12 01:04:07;;;;;;;;;;;;;;;3.91;100.00;100713.22;5050687;28;19920;-84
2022/02/12 01:06:33;;;;;;;;;;;;;;;3.71;100.00;100717.84;5051050;28;19952;-82
2022/02/12 01:08:58;;;;;;;;;;;;;;;3.20;100.00;100709.00;5046389;28;20291;-82
2022/02/12 01:11:24;;;;;;;;;;;;;;;3.29;100.00;100711.75;5067083;28;20019;-82
2022/02/12 01:13:49;;;;;;;;;;;;;;;3.33;100.00;100707.59;5066883;28;19921;-84
2022/02/12 01:16:14;;;;;;;;;;;;;;;3.09;100.00;100713.78;5067316;28;19923;-84
2022/02/12 01:18:40;;;;;;;;;;;;;;;3.18;100.00;100720.81;5049525;28;19916;-84
2022/02/12 01:21:05;;;;;;;;;;;;;;;3.40;100.00;100713.69;5050368;28;19920;-83
2022/02/12 01:23:30;;;;;;;;;;;;;;;3.35;100.00;100717.00;5066671;28;19920;-83
2022/02/12 01:25:55;;;;;;;;;;;;;;;3.20;100.00;100715.75;5050012;28;19920;-82
2022/02/12 01:28:21;;;;;;;;;;;;;;;3.01;100.00;100715.28;5066169;28;19928;-84
2022/02/12 01:30:46;;;;;;;;;;;;;;;2.83;100.00;100720.75;5067460;28;19924;-86
2022/02/12 01:33:12;;;;;;;;;;;;;;;3.28;100.00;100719.34;5050762;28;19920;-83
2022/02/12 01:35:37;;;;;;;;;;;;;;;3.21;100.00;100730.22;5066626;28;19921;-82
2022/02/12 01:38:02;;;;;;;;;;;;;;;3.05;100.00;100723.84;5050784;28;19951;-85
2022/02/12 01:40:28;;;;;;;;;;;;;;;3.19;100.00;100726.75;5067116;28;19920;-83
2022/02/12 01:42:53;;;;;;;;;;;;;;;2.94;100.00;100718.47;5050137;28;19931;-82
2022/02/12 01:45:19;;;;;;;;;;;;;;;2.76;100.00;100730.69;5050571;28;19971;-83
2022/02/12 01:47:44;;;;;;;;;;;;;;;2.95;100.00;100734.63;5066973;28;20318;-84
2022/02/12 01:50:09;;;;;;;;;;;;;;;2.74;100.00;100728.13;5050038;28;19924;-83
2022/02/12 01:52:37;;;;;;;;;;;;;;;2.98;100.00;100729.63;5066375;28;19920;-83
2022/02/12 01:55:02;;;;;;;;;;;;;;;3.07;100.00;100734.94;5050016;28;19917;-82
2022/02/12 01:57:27;;;;;;;;;;;;;;;3.21;100.00;100722.56;5066462;28;19927;-81
2022/02/12 01:59:53;;;;;;;;;;;;;;;3.09;100.00;100723.13;5050829;28;19920;-84
2022/02/12 02:02:18;;;;;;;;;;;;;;;2.85;100.00;100721.66;5070987;28;19917;-87
2022/02/12 02:04:43;;;;;;;;;;;;;;;3.22;100.00;100722.63;5053482;28;19924;-86
2022/02/12 02:07:09;;;;;;;;;;;;;;;3.05;100.00;100719.63;5071001;28;19916;-83
2022/02/12 02:09:34;;;;;;;;;;;;;;;2.29;100.00;100716.69;5029809;28;19947;-84
2022/02/12 02:12:00;;;;;;;;;;;;;;;3.03;100.00;100722.94;5047853;28;19922;-81
2022/02/12 02:14:36;;;;;;;;;;;;;;;3.09;100.00;100720.56;5028536;28;20338;-84
2022/02/12 02:17:01;;;;;;;;;;;;;;;3.01;100.00;100714.41;5013409;28;20310;-85
2022/02/12 02:19:26;;;;;;;;;;;;;;;2.72;100.00;100709.41;5030094;28;19917;-81
2022/02/12 02:21:55;;;;;;;;;;;;;;;2.93;100.00;100719.31;5047891;28;19920;-81
2022/02/12 02:24:21;;;;;;;;;;;;;;;3.12;100.00;100710.47;5012268;28;19920;-82
2022/02/12 02:26:46;;;;;;;;;;;;;;;2.88;100.00;100710.69;5030437;28;19921;-84
2022/02/12 02:29:11;;;;;;;;;;;;;;;2.86;100.00;100710.66;5029056;28;19970;-85
2022/02/12 02:31:36;;;;;;;;;;;;;;;2.70;100.00;100705.97;5048395;28;19932;-81
2022/02/12 02:34:08;;;;;;;;;;;;;;;2.81;100.00;100707.13;5013090;28;19916;-84
2022/02/12 02:36:34;;;;;;;;;;;;;;;3.00;100.00;100712.69;5012896;28;19966;-82
2022/02/12 02:38:59;;;;;;;;;;;;;;;2.76;100.00;100713.78;5029137;28;19999;-83
2022/02/12 02:41:25;;;;;;;;;;;;;;;2.74;100.00;100710.31;5046373;28;20390;-82
2022/02/12 02:43:50;;;;;;;;;;;;;;;3.07;100.00;100706.94;5029180;28;19966;-82
2022/02/12 02:46:15;;;;;;;;;;;;;;;2.61;100.00;100701.50;5029310;28;19931;-83
2022/02/12 02:48:40;;;;;;;;;;;;;;;2.54;100.00;100691.13;5012951;28;19924;-81
2022/02/12 02:56:34;;;;;;;;;;;;;;;2.27;100.00;100702.22;5046629;28;20303;-83
2022/02/12 02:58:59;;;;;;;;;;;;;;;2.57;100.00;100703.91;5028668;28;19920;-81
2022/02/12 03:01:25;;;;;;;;;;;;;;;2.53;100.00;100702.09;5028697;28;19992;-81
2022/02/12 03:03:51;;;;;;;;;;;;;;;2.32;100.00;100697.25;5047325;28;19991;-83
2022/02/12 03:06:17;;;;;;;;;;;;;;;2.23;100.00;100688.53;5029415;28;19916;-83
2022/02/12 03:08:42;;;;;;;;;;;;;;;2.00;100.00;100692.97;5053044;28;20390;-83
2022/02/12 03:11:08;;;;;;;;;;;;;;;2.70;100.00;100688.16;5065295;28;19935;-85
2022/02/12 03:13:33;;;;;;;;;;;;;;;2.00;100.00;100676.84;5064950;28;20684;-82
2022/02/12 03:15:59;;;;;;;;;;;;;;;1.96;100.00;100681.00;5065816;28;19912;-82
2022/02/12 03:18:25;;;;;;;;;;;;;;;2.25;100.00;100678.44;5065995;28;19917;-82
2022/02/12 03:20:50;;;;;;;;;;;;;;;2.69;100.00;100681.34;5067152;28;19916;-83
2022/02/12 03:23:19;;;;;;;;;;;;;;;2.73;100.00;100667.88;5049168;28;19939;-83
2022/02/12 03:25:44;;;;;;;;;;;;;;;2.47;100.00;100665.50;5064687;28;19927;-86
2022/02/12 03:28:10;;;;;;;;;;;;;;;2.67;100.00;100668.59;5064634;28;20406;-83
2022/02/12 03:30:42;;;;;;;;;;;;;;;1.93;100.00;100664.78;5048559;28;20026;-84
2022/02/12 03:33:07;;;;;;;;;;;;;;;2.44;100.00;100664.53;5063539;28;20011;-84
2022/02/12 03:35:33;;;;;;;;;;;;;;;2.72;100.00;100656.00;5065064;28;20018;-82
2022/02/12 03:38:14;;;;;;;;;;;;;;;2.52;100.00;100647.84;5066004;28;20294;-82
2022/02/12 03:40:41;;;;;;;;;;;;;;;2.40;100.00;100643.28;5065442;28;20314;-85
2022/02/12 03:43:06;;;;;;;;;;;;;;;1.79;100.00;100651.69;5068859;28;19964;-82
2022/02/12 03:45:32;;;;;;;;;;;;;;;2.26;100.00;100650.53;5068882;28;20057;-84
2022/02/12 03:47:57;;;;;;;;;;;;;;;2.57;100.00;100645.41;5069396;28;19927;-85
2022/02/12 03:50:22;;;;;;;;;;;;;;;2.04;100.00;100649.03;5052414;28;19978;-84
2022/02/12 03:52:49;;;;;;;;;;;;;;;1.91;100.00;100652.03;5069641;28;19951;-82
2022/02/12 03:55:15;;;;;;;;;;;;;;;2.02;100.00;100650.66;5068783;28;19965;-82
2022/02/12 03:57:41;;;;;;;;;;;;;;;2.17;100.00;100654.50;5052014;28;20019;-84
2022/02/12 04:00:09;;;;;;;;;;;;;;;2.05;100.00;100650.78;5084594;28;20055;-81
2022/02/12 04:02:34;;;;;;;;;;;;;;;1.96;100.00;100645.44;5068672;28;19920;-81
2022/02/12 04:05:00;;;;;;;;;;;;;;;2.32;100.00;100648.97;5070227;28;19912;-82
2022/02/12 04:07:25;;;;;;;;;;;;;;;2.04;100.00;100649.03;5048849;28;19921;-84
2022/02/12 04:09:50;;;;;;;;;;;;;;;1.98;100.00;100648.84;5015059;28;20125;-85
2022/02/12 04:12:15;;;;;;;;;;;;;;;2.16;100.00;100642.59;5031970;28;19921;-85
2022/02/12 04:14:41;;;;;;;;;;;;;;;2.13;100.00;100637.44;5015419;28;20009;-83
2022/02/12 04:17:06;;;;;;;;;;;;;;;1.85;100.00;100644.25;5032328;28;20048;-86
2022/02/12 04:19:31;;;;;;;;;;;;;;;2.09;100.00;100644.94;5015258;28;19920;-84
2022/02/12 04:21:57;;;;;;;;;;;;;;;1.91;100.00;100639.31;5015527;28;19931;-85
2022/02/12 04:24:23;;;;;;;;;;;;;;;1.83;100.00;100646.72;5030893;28;20843;-85
2022/02/12 04:26:48;;;;;;;;;;;;;;;2.04;100.00;100631.25;5014520;28;19967;-83
2022/02/12 04:29:13;;;;;;;;;;;;;;;2.47;100.00;100629.91;5014194;28;19928;-83
2022/02/12 04:31:38;;;;;;;;;;;;;;;2.32;100.00;100619.31;5030523;28;19924;-84
2022/02/12 04:34:04;;;;;;;;;;;;;;;1.96;100.00;100625.09;5031366;28;19920;-83
2022/02/12 04:36:29;;;;;;;;;;;;;;;1.80;100.00;100626.34;5030488;28;20448;-85
2022/02/12 04:38:54;;;;;;;;;;;;;;;1.76;100.00;100616.03;5031125;28;19979;-83
2022/02/12 04:41:20;;;;;;;;;;;;;;;1.46;100.00;100619.38;5014586;28;20092;-84
2022/02/12 04:43:45;;;;;;;;;;;;;;;1.56;100.00;100608.66;5031495;28;20802;-83
2022/02/12 04:46:10;;;;;;;;;;;;;;;1.66;100.00;100608.13;5031235;28;19921;-83
2022/02/12 04:48:35;;;;;;;;;;;;;;;1.75;100.00;100599.06;5030944;28;19921;-86
2022/02/12 04:51:01;;;;;;;;;;;;;;;1.76;100.00;100603.34;5030586;28;20450;-85
2022/02/12 04:53:26;;;;;;;;;;;;;;;1.88;100.00;100602.00;5029249;28;19948;-84
2022/02/12 04:55:51;;;;;;;;;;;;;;;2.02;100.00;100596.47;5030443;28;19925;-84
2022/02/12 04:58:16;;;;;;;;;;;;;;;1.46;100.00;100594.84;5030945;28;19913;-84
2022/02/12 05:00:42;;;;;;;;;;;;;;;1.91;100.00;100591.06;5030054;28;20384;-83
2022/02/12 05:03:07;;;;;;;;;;;;;;;1.65;100.00;100596.25;5014373;28;19923;-84
2022/02/12 05:05:32;;;;;;;;;;;;;;;1.93;100.00;100604.66;5048572;28;20384;-84
2022/02/12 05:07:58;;;;;;;;;;;;;;;1.81;100.00;100604.34;5042187;28;19928;-85
2022/02/12 05:10:23;;;;;;;;;;;;;;;1.72;100.00;100599.84;5067025;28;19921;-85
2022/02/12 05:12:48;;;;;;;;;;;;;;;1.71;100.00;100602.31;5067784;28;19927;-83
2022/02/12 05:15:13;;;;;;;;;;;;;;;1.60;100.00;100590.19;5068745;28;20496;-85
2022/02/12 05:17:39;;;;;;;;;;;;;;;1.70;100.00;100596.38;5070324;28;19917;-85
2022/02/12 05:20:04;;;;;;;;;;;;;;;1.98;100.00;100587.88;5082730;28;20306;-87
2022/02/12 05:22:30;;;;;;;;;;;;;;;1.64;100.00;100597.09;5085810;28;19920;-87
2022/02/12 05:24:55;;;;;;;;;;;;;;;1.64;100.00;100592.00;5087742;28;19920;-86
2022/02/12 05:27:22;;;;;;;;;;;;;;;1.90;100.00;100585.97;5087210;28;19973;-87
2022/02/12 05:29:47;;;;;;;;;;;;;;;1.81;100.00;100581.47;5074716;28;19924;-86
2022/02/12 05:32:12;;;;;;;;;;;;;;;1.77;100.00;100587.28;5054910;28;19927;-86
2022/02/12 05:34:38;;;;;;;;;;;;;;;1.65;100.00;100583.56;5071439;28;19982;-86
2022/02/12 05:37:03;;;;;;;;;;;;;;;1.34;100.00;100578.38;5073896;28;19956;-86
2022/02/12 05:39:28;;;;;;;;;;;;;;;1.29;100.00;100585.00;5075391;28;19924;-86
2022/02/12 05:41:53;;;;;;;;;;;;;;;1.39;100.00;100587.88;5074572;28;19924;-85
2022/02/12 05:44:19;;;;;;;;;;;;;;;1.41;100.00;100577.72;5071551;28;20462;-86
2022/02/12 05:46:44;;;;;;;;;;;;;;;1.50;100.00;100588.16;5070710;28;19931;-86
2022/02/12 05:49:09;;;;;;;;;;;;;;;1.35;100.00;100585.19;5071664;28;19967;-85
2022/02/12 05:51:34;;;;;;;;;;;;;;;1.19;100.00;100592.31;5070361;28;19924;-84
2022/02/12 05:54:00;;;;;;;;;;;;;;;1.25;100.00;100589.97;5053288;28;20394;-87
2022/02/12 05:56:26;;;;;;;;;;;;;;;1.71;100.00;100582.00;5070035;28;19924;-87
2022/02/12 05:58:51;;;;;;;;;;;;;;;1.27;100.00;100584.06;5069884;28;20371;-84
2022/02/12 06:01:16;;;;;;;;;;;;;;;1.09;100.00;100580.13;5069894;28;20391;-87
2022/02/12 06:03:42;;;;;;;;;;;;;;;1.38;100.00;100578.50;5069494;28;20602;-86
2022/02/12 06:06:07;;;;;;;;;;;;;;;1.55;100.00;100573.97;5069197;28;19935;-86
2022/02/12 06:08:32;;;;;;;;;;;;;;;1.79;100.00;100571.25;5058022;28;19952;-86
2022/02/12 06:10:58;;;;;;;;;;;;;;;1.81;100.00;100563.69;5033049;28;19931;-85
2022/02/12 06:13:24;;;;;;;;;;;;;;;1.68;100.00;100563.31;5017209;28;19943;-85
2022/02/12 06:15:49;;;;;;;;;;;;;;;2.00;100.00;100565.06;5015704;28;19916;-87
2022/02/12 06:18:15;;;;;;;;;;;;;;;1.81;100.00;100558.59;5016785;28;19923;-85
2022/02/12 06:20:40;;;;;;;;;;;;;;;2.09;100.00;100558.53;5033928;28;20063;-85
2022/02/12 06:23:05;;;;;;;;;;;;;;;2.16;100.00;100553.63;5016123;28;20307;-86
2022/02/12 06:25:31;;;;;;;;;;;;;;;1.70;100.00;100539.66;5032998;28;19955;-83
2022/02/12 06:27:57;;;;;;;;;;;;;;;1.94;100.00;100550.53;5032113;28;19921;-86
2022/02/12 06:30:23;;;;;;;;;;;;;;;1.80;100.00;100542.50;5033324;28;20352;-86
2022/02/12 06:32:48;;;;;;;;;;;;;;;1.67;100.00;100540.44;5031468;28;19955;-87
2022/02/12 06:35:13;;;;;;;;;;;;;;;1.91;100.00;100540.25;5015513;28;19944;-87
2022/02/12 06:37:39;;;;;;;;;;;;;;;1.89;100.00;100541.88;5015367;28;19923;-86
2022/02/12 06:40:04;;;;;;;;;;;;;;;1.54;100.00;100529.06;5032324;28;19943;-87
2022/02/12 06:42:29;;;;;;;;;;;;;;;1.91;100.00;100532.63;5014728;28;20265;-86
2022/02/12 06:44:55;;;;;;;;;;;;;;;1.53;100.00;100529.88;5049208;28;19921;-86
2022/02/12 06:47:20;;;;;;;;;;;;;;;1.83;100.00;100542.59;5032306;28;19924;-87
2022/02/12 06:49:45;;;;;;;;;;;;;;;1.65;100.00;100542.91;5032571;28;19971;-87
2022/02/12 06:52:10;;;;;;;;;;;;;;;1.31;100.00;100535.13;5015602;28;19940;-85
2022/02/12 06:54:36;;;;;;;;;;;;;;;1.73;100.00;100537.19;5031199;28;21398;-85
2022/02/12 06:57:01;;;;;;;;;;;;;;;1.77;100.00;100542.41;5040884;23;20396;-85
2022/02/12 06:59:27;;;;;;;;;;;;;;;1.83;100.00;100526.50;5026989;28;20215;-85
2022/02/12 07:01:52;;;;;;;;;;;;;;;1.75;100.00;100530.47;5031870;28;19932;-85
2022/02/12 07:04:17;;;;;;;;;;;;;;;1.21;100.00;100539.94;5031313;28;19971;-86
2022/02/12 07:06:43;;;;;;;;;;;;;;;1.53;100.00;100531.53;5042437;28;19917;-86
2022/02/12 07:09:11;;;;;;;;;;;;;;;1.34;100.00;100540.28;5047850;28;20064;-86
2022/02/12 07:11:36;;;;;;;;;;;;;;;1.76;100.00;100532.22;5045927;28;19935;-87
2022/02/12 07:14:01;;;;;;;;;;;;;;;1.08;100.00;100534.44;5031682;28;19917;-86
2022/02/12 07:16:27;;;;;;;;;;;;;;;1.69;100.00;100538.81;5032917;28;19925;-87
2022/02/12 07:18:52;;;;;;;;;;;;;;;1.27;100.00;100540.94;5035608;28;20390;-87
2022/02/12 07:21:17;;;;;;;;;;;;;;;1.25;100.00;100530.72;5034722;28;19991;-86
2022/02/12 07:23:43;;;;;;;;;;;;;;;1.75;100.00;100548.25;5053070;28;19939;-84
2022/02/12 07:26:08;;;;;;;;;;;;;;;1.95;100.00;100542.06;5056452;28;19923;-84
2022/02/12 07:28:33;;;;;;;;;;;;;;;1.77;100.00;100531.41;5074973;28;19916;-84
2022/02/12 07:30:59;;;;;;;;;;;;;;;1.99;100.00;100528.63;5057632;28;19921;-84
2022/02/12 07:33:26;;;;;;;;;;;;;;;1.88;100.00;100525.78;5038474;28;19978;-83
2022/02/12 07:35:51;;;;;;;;;;;;;;;2.03;100.00;100520.28;5074768;28;19959;-84
2022/02/12 07:38:17;;;;;;;;;;;;;;;1.57;100.00;100524.06;5040501;28;19917;-84
2022/02/12 07:40:42;;;;;;;;;;;;;;;1.77;100.00;100522.09;5056120;28;19921;-87
2022/02/12 07:43:08;;;;;;;;;;;;;;;2.02;100.00;100518.53;5043188;28;20284;-84
2022/02/12 07:45:33;;;;;;;;;;;;;;;2.20;100.00;100518.19;5041619;28;19924;-83
2022/02/12 07:47:59;;;;;;;;;;;;;;;1.88;100.00;100522.41;5075574;28;19958;-83
2022/02/12 07:50:26;;;;;;;;;;;;;;;2.18;100.00;100518.97;5041696;28;20285;-85
2022/02/12 07:52:52;;;;;;;;;;;;;;;2.19;100.00;100516.47;5040972;28;19917;-84
2022/02/12 07:55:17;;;;;;;;;;;;;;;1.75;100.00;100513.56;5059770;28;19920;-83
2022/02/12 07:57:42;;;;;;;;;;;;;;;2.21;100.00;100513.94;5063383;28;20303;-82
2022/02/12 08:00:08;;;;;;;;;;;;;;;2.45;100.00;100514.59;5099741;28;19916;-84
2022/02/12 08:02:33;;;;;;;;;;;;;;;2.30;100.00;100514.19;5081731;28;19915;-82
2022/02/12 08:04:59;;;;;;;;;;;;;;;2.43;100.00;100511.13;5081502;28;19919;-82
2022/02/12 08:07:30;;;;;;;;;;;;;;;2.73;100.00;100511.03;5065001;28;19916;-82
2022/02/12 08:09:56;;;;;;;;;;;;;;;2.66;100.00;100504.06;5081068;28;19927;-85
2022/02/12 08:12:22;;;;;;;;;;;;;;;2.52;100.00;100497.78;5099324;28;19916;-84
2022/02/12 08:14:50;;;;;;;;;;;;;;;2.51;100.00;100501.19;5080649;28;20022;-84
2022/02/12 08:17:16;;;;;;;;;;;;;;;2.31;100.00;100498.13;5081485;28;19920;-83
2022/02/12 08:19:42;;;;;;;;;;;;;;;2.74;100.00;100496.66;5079247;28;20386;-83
2022/02/12 08:22:07;;;;;;;;;;;;;;;2.37;100.00;100495.72;5064294;28;19916;-83
2022/02/12 08:24:33;;;;;;;;;;;;;;;2.80;100.00;100501.00;5056749;28;19923;-83
2022/02/12 08:26:59;;;;;;;;;;;;;;;2.27;100.00;100491.25;5056558;28;20455;-84
2022/02/12 08:29:28;;;;;;;;;;;;;;;2.63;100.00;100498.06;5071540;28;19916;-85
2022/02/12 08:31:53;;;;;;;;;;;;;;;2.66;100.00;100498.13;5070318;28;19920;-86
2022/02/12 08:34:19;;;;;;;;;;;;;;;3.06;100.00;100505.03;5070485;28;19916;-83
2022/02/12 08:36:44;;;;;;;;;;;;;;;3.37;100.00;100494.63;5071377;28;19916;-84
2022/02/12 08:39:09;;;;;;;;;;;;;;;3.10;100.00;100498.28;5055121;28;20503;-83
2022/02/12 08:41:35;;;;;;;;;;;;;;;2.73;100.00;100492.38;5054024;28;19923;-83
2022/02/12 08:44:00;;;;;;;;;;;;;;;2.70;100.00;100489.75;5055200;28;19942;-84
2022/02/12 08:46:25;;;;;;;;;;;;;;;2.91;100.00;100489.41;5071160;28;19916;-83
2022/02/12 08:48:51;;;;;;;;;;;;;;;2.84;100.00;100478.22;5071438;28;19959;-85
2022/02/12 08:51:16;;;;;;;;;;;;;;;3.09;100.00;100478.78;5089338;28;19963;-85
2022/02/12 08:53:41;;;;;;;;;;;;;;;3.07;100.00;100472.78;5054782;28;19987;-83
2022/02/12 08:56:06;;;;;;;;;;;;;;;3.09;100.00;100469.44;5053633;28;20311;-84
2022/02/12 08:58:32;;;;;;;;;;;;;;;3.47;100.00;100466.00;5071528;28;19924;-84
2022/02/12 09:00:57;;;;;;;;;;;;;;;3.86;100.00;100462.50;5053892;28;19920;-83
2022/02/12 09:03:23;;;;;;;;;;;;;;;2.93;100.00;100452.97;5071110;28;19919;-83
2022/02/12 09:05:48;;;;;;;;;;;;;;;3.72;100.00;100452.91;5071096;28;19923;-83
2022/02/12 09:08:13;;;;;;;;;;;;;;;3.92;100.00;100444.75;5071787;28;19912;-83
2022/02/12 09:10:39;;;;;;;;;;;;;;;4.12;100.00;100442.56;5053870;28;19920;-83
2022/02/12 09:13:04;;;;;;;;;;;;;;;3.92;100.00;100444.75;5053818;28;19919;-84
2022/02/12 09:15:30;;;;;;;;;;;;;;;4.01;100.00;100439.84;5070780;28;19951;-84
2022/02/12 09:17:55;;;;;;;;;;;;;;;3.34;100.00;100432.63;5070312;28;20316;-87
2022/02/12 09:20:20;;;;;;;;;;;;;;;3.94;100.00;100438.00;5071304;28;20371;-84
2022/02/12 09:22:46;;;;;;;;;;;;;;;4.53;100.00;100427.09;5071403;28;19915;-84
2022/02/12 09:25:12;;;;;;;;;;;;;;;4.62;100.00;100427.25;5071911;28;19927;-84
2022/02/12 09:27:37;;;;;;;;;;;;;;;4.56;100.00;100420.38;5071844;28;19920;-84
2022/02/12 09:30:03;;;;;;;;;;;;;;;4.88;100.00;100425.09;5070833;28;20033;-85
2022/02/12 09:32:28;;;;;;;;;;;;;;;4.65;100.00;100418.75;5070049;28;20405;-87
2022/02/12 09:34:54;;;;;;;;;;;;;;;4.41;100.00;100409.91;5070248;28;19920;-84
2022/02/12 09:37:19;;;;;;;;;;;;;;;4.78;100.00;100410.47;5069769;28;19927;-85
2022/02/12 09:39:44;;;;;;;;;;;;;;;5.38;100.00;100398.44;5052874;28;19926;-84
2022/02/12 09:42:10;;;;;;;;;;;;;;;5.55;100.00;100406.31;5053743;28;19926;-85
2022/02/12 09:44:37;;;;;;;;;;;;;;;5.95;100.00;100404.19;5052904;28;19916;-84
2022/02/12 09:47:22;;;;;;;;;;;;;;;5.24;100.00;100398.28;5053534;28;19923;-84
2022/02/12 09:49:47;;;;;;;;;;;;;;;5.73;100.00;100400.56;5068581;28;20375;-86
2022/02/12 09:52:12;;;;;;;;;;;;;;;6.13;100.00;100390.72;5069585;28;20013;-86
2022/02/12 09:54:37;;;;;;;;;;;;;;;5.75;100.00;100394.63;5052740;28;19962;-86
2022/02/12 09:57:04;;;;;;;;;;;;;;;5.65;100.00;100388.53;5048959;28;19924;-85
2022/02/12 09:59:30;;;;;;;;;;;;;;;5.70;100.00;100380.06;5049217;28;20187;-84
2022/02/12 10:01:55;;;;;;;;;;;;;;;5.55;100.00;100381.63;5049184;28;19927;-83
2022/02/12 10:04:21;;;;;;;;;;;;;;;6.23;100.00;100375.47;5066222;28;19955;-84
2022/02/12 10:06:47;;;;;;;;;;;;;;;6.32;100.00;100378.91;5065478;28;20367;-83
2022/02/12 10:09:12;;;;;;;;;;;;;;;6.44;100.00;100366.22;5065359;28;19981;-85
2022/02/12 10:11:41;;;;;;;;;;;;;;;6.43;100.00;100369.63;5065200;28;20363;-85
2022/02/12 10:14:07;;;;;;;;;;;;;;;6.14;100.00;100366.88;5048242;28;20354;-83
2022/02/12 10:16:47;;;;;;;;;;;;;;;5.65;100.00;100364.69;5065777;28;20015;-84
2022/02/12 10:19:12;;;;;;;;;;;;;;;6.68;100.00;100355.28;5048161;28;19928;-84
2022/02/12 10:21:38;;;;;;;;;;;;;;;6.36;100.00;100345.69;5064944;28;19912;-83
2022/02/12 10:24:03;;;;;;;;;;;;;;;6.38;100.00;100351.69;5047340;28;19961;-84
2022/02/12 10:26:30;;;;;;;;;;;;;;;6.70;100.00;100333.09;5064020;28;20020;-83
2022/02/12 10:29:01;;;;;;;;;;;;;;;6.52;100.00;100338.97;5048063;28;19923;-83
2022/02/12 10:31:27;;;;;;;;;;;;;;;6.02;100.00;100329.25;5064774;28;20360;-83
2022/02/12 10:33:53;;;;;;;;;;;;;;;6.12;100.00;100327.63;5064700;28;19916;-86
2022/02/12 10:36:18;;;;;;;;;;;;;;;6.88;100.00;100316.97;5048044;28;20390;-86
2022/02/12 10:38:45;;;;;;;;;;;;;;;5.98;100.00;100309.63;5064596;28;19924;-84
2022/02/12 10:41:12;;;;;;;;;;;;;;;6.06;100.00;100302.84;5064050;28;19920;-86
2022/02/12 10:43:38;;;;;;;;;;;;;;;6.18;100.00;100302.97;5064766;28;19995;-86
2022/02/12 10:46:04;;;;;;;;;;;;;;;5.95;100.00;100289.13;5048204;28;19995;-86
2022/02/12 10:48:30;;;;;;;;;;;;;;;6.24;100.00;100286.78;5047672;28;19949;-85
2022/02/12 10:51:05;;;;;;;;;;;;;;;6.79;100.00;100287.06;5048301;28;19924;-85
2022/02/12 10:53:31;;;;;;;;;;;;;;;6.73;100.00;100265.69;5048154;28;20019;-86
2022/02/12 10:56:00;;;;;;;;;;;;;;;7.12;100.00;100264.97;5046858;28;20420;-85
2022/02/12 10:58:26;;;;;;;;;;;;;;;6.87;100.00;100258.94;5047809;28;20038;-86
2022/02/12 11:00:51;;;;;;;;;;;;;;;6.90;100.00;100241.00;5048134;28;20357;-85
2022/02/12 11:03:18;;;;;;;;;;;;;;;7.33;100.00;100241.09;5048461;28;20410;-87
2022/02/12 11:05:51;;;;;;;;;;;;;;;7.60;100.00;100229.16;5048787;28;19917;-87
2022/02/12 11:08:17;;;;;;;;;;;;;;;7.79;100.00;100228.28;5065686;28;19966;-87
2022/02/12 11:10:42;;;;;;;;;;;;;;;7.38;100.00;100229.13;5062792;28;20015;-87
2022/02/12 11:13:08;;;;;;;;;;;;;;;7.21;100.00;100218.03;5044839;28;19932;-85
2022/02/12 11:15:33;;;;;;;;;;;;;;;6.89;100.00;100206.88;5048230;28;20383;-85
2022/02/12 11:17:59;;;;;;;;;;;;;;;6.92;100.00;100213.72;5064532;28;19916;-84
2022/02/12 11:20:25;;;;;;;;;;;;;;;7.55;100.00;100198.41;5065557;28;19943;-84
2022/02/12 11:22:55;;;;;;;;;;;;;;;7.25;100.00;100194.09;5065646;28;20006;-83
2022/02/12 11:25:34;;;;;;;;;;;;;;;7.35;100.00;100193.28;5065658;28;20304;-83
2022/02/12 11:28:07;;;;;;;;;;;;;;;7.50;100.00;100182.16;5064527;28;19920;-83
2022/02/12 11:30:32;;;;;;;;;;;;;;;7.39;100.00;100187.31;5048792;28;19929;-83
2022/02/12 11:32:58;;;;;;;;;;;;;;;7.09;100.00;100183.00;5049219;28;19939;-82
2022/02/12 11:35:24;;;;;;;;;;;;;;;7.13;100.00;100180.44;5074680;28;19935;-84
2022/02/12 11:37:49;;;;;;;;;;;;;;;7.84;100.00;100167.56;5076063;28;20394;-84
2022/02/12 11:40:23;;;;;;;;;;;;;;;8.16;100.00;100166.63;5070658;28;19916;-85
2022/02/12 11:42:53;;;;;;;;;;;;;;;7.64;100.00;100171.88;5068300;28;19920;-85
2022/02/12 11:45:37;;;;;;;;;;;;;;;8.10;100.00;100161.53;5071825;28;19939;-84
2022/02/12 11:48:17;;;;;;;;;;;;;;;7.82;100.00;100147.91;5072780;28;20007;-83
2022/02/12 11:50:53;;;;;;;;;;;;;;;8.28;100.00;100151.22;5071649;28;19925;-84
2022/02/12 11:53:33;;;;;;;;;;;;;;;8.77;100.00;100150.97;5052437;28;19920;-84
2022/02/12 11:56:00;;;;;;;;;;;;;;;8.84;100.00;100145.81;5078823;28;20200;-83
2022/02/12 11:58:46;;;;;;;;;;;;;;;8.62;100.00;100134.81;5074391;28;19942;-85
2022/02/12 12:01:21;;;;;;;;;;;;;;;8.70;100.00;100133.91;5071652;28;19916;-83
2022/02/12 12:04:05;;;;;;;;;;;;;;;9.06;100.00;100120.81;5094754;28;20398;-83
2022/02/12 12:06:31;;;;;;;;;;;;;;;8.79;100.00;100117.59;5075045;28;20394;-83
2022/02/12 12:09:06;;;;;;;;;;;;;;;8.87;100.00;100115.81;5072521;28;19916;-86
2022/02/12 12:11:31;;;;;;;;;;;;;;;8.52;100.00;100103.19;5055966;28;19920;-84
2022/02/12 12:13:59;;;;;;;;;;;;;;;8.94;100.00;100109.78;5069314;28;20437;-84
2022/02/12 12:16:28;;;;;;;;;;;;;;;9.20;100.00;100101.84;5073411;28;20297;-84
2022/02/12 12:18:53;;;;;;;;;;;;;;;9.35;100.00;100097.41;5057380;28;19951;-83
2022/02/12 12:21:19;;;;;;;;;;;;;;;9.15;100.00;100087.34;5054255;28;19955;-84
2022/02/12 12:23:52;;;;;;;;;;;;;;;8.78;100.00;100085.91;5092231;28;19923;-84
2022/02/12 12:26:18;;;;;;;;;;;;;;;8.70;100.00;100081.69;5075343;28;19963;-83
2022/02/12 12:30:43;;;;;;;;;;;;;;;9.04;100.00;100082.28;5074765;28;19990;-83
2022/02/12 12:31:30;;;;;;;;;;;;;;;8.89;100.00;100083.25;5076443;28;19920;-83
2022/02/12 12:33:55;;;;;;;;;;;;;;;9.23;100.00;100080.41;5057123;28;19934;-83
2022/02/12 12:36:20;;;;;;;;;;;;;;;9.15;100.00;100070.19;5057553;28;20037;-84